Downstream station:
SHEF ID: OSLK1 LABETTE C NR OSWEGO, KS
STATION TYPE:
Regulating: Stage = 20.00, Flow = 5530
STAGE RIV-FLOW BAT-LOAD
ft cfs volt
Ccp-Rev Ccp-Rev Ccp-Rev
(US/Central)
03/31 00:00 5.91 21 12.20
03/31 01:00 5.98 26 12.19
03/31 02:00 6.09 36 12.20
03/31 03:00 6.22 50 12.19
03/31 04:00 6.31 61 12.18
03/31 05:00 6.37 70 12.17
03/31 06:00 6.42 78 12.17
03/31 07:00 6.44 81 12.17
03/31 08:00 6.46 84 12.16
03/31 09:00 6.46 84 12.26
03/31 10:00 6.46 84 12.77
03/31 11:00 6.47 86 12.99
03/31 12:00 6.48 88 13.03
03/31 13:00 6.48 88 13.25
03/31 14:00 6.49 89 13.47
03/31 15:00 6.48 88 13.23
03/31 16:00 6.49 89 13.42
03/31 17:00 6.49 89 13.32
03/31 18:00 6.48 88 14.02
03/31 19:00 6.48 88 14.08
03/31 20:00 6.46 84 13.49
03/31 21:00 6.45 83 12.72
03/31 22:00 6.44 81 12.48
03/31 23:00 6.42 78 12.44